Time;durP1;ratioP1;P1;durP2;ratioP2;P2;SDS_P1;SDS_P2;PMS_P1;PMS_P2;Temp;Humidity;BMP_temperature;BMP_pressure;BME280_temperature;BME280_humidity;BME280_pressure;Samples;Min_cycle;Max_cycle;Signal;HPM_P1;HPM_P2
2022/03/09 00:00:19;;;;;;;11.15;4.45;;;;;;;;;;1690256;29;21591;-59
2022/03/09 00:01:11;;;;;;;6.82;4.72;;;;;;;;;;1689342;29;21697;-59
2022/03/09 00:02:03;;;;;;;6.68;4.55;;;;;;;;;;1690200;29;21642;-59
2022/03/09 00:02:55;;;;;;;17.30;4.88;;;;;;;;;;1690143;29;22243;-59
2022/03/09 00:03:46;;;;;;;20.85;4.75;;;;;;;;;;1690351;29;21520;-59
2022/03/09 00:04:39;;;;;;;17.65;4.75;;;;;;;;;;1689565;29;21639;-59
2022/03/09 00:05:30;;;;;;;19.17;4.82;;;;;;;;;;1690183;29;21908;-58
2022/03/09 00:06:22;;;;;;;6.68;4.72;;;;;;;;;;1690270;29;21552;-59
2022/03/09 00:07:13;;;;;;;7.80;4.72;;;;;;;;;;1685794;29;21689;-59
2022/03/09 00:08:05;;;;;;;11.50;4.68;;;;;;;;;;1689224;29;21543;-59
2022/03/09 00:08:57;;;;;;;8.65;4.50;;;;;;;;;;1688340;29;21553;-59
2022/03/09 00:09:51;;;;;;;11.32;4.95;;;;;;;;;;1689571;29;21631;-59
2022/03/09 00:10:42;;;;;;;16.83;4.68;;;;;;;;;;1690199;29;21515;-59
2022/03/09 00:11:34;;;;;;;13.75;4.68;;;;;;;;;;1690301;29;21570;-59
2022/03/09 00:12:25;;;;;;;4.88;4.40;;;;;;;;;;1690292;29;21582;-59
2022/03/09 00:13:18;;;;;;;13.25;5.28;;;;;;;;;;1690272;29;21499;-59
2022/03/09 00:14:09;;;;;;;6.53;4.57;;;;;;;;;;1689714;29;21603;-59
2022/03/09 00:15:01;;;;;;;7.93;4.00;;;;;;;;;;1690084;29;21675;-60
2022/03/09 00:15:52;;;;;;;8.57;4.10;;;;;;;;;;1690327;29;21596;-60
2022/03/09 00:16:44;;;;;;;5.63;4.28;;;;;;;;;;1689975;29;21688;-60
2022/03/09 00:17:36;;;;;;;18.77;5.15;;;;;;;;;;1689810;29;21630;-60
2022/03/09 00:18:28;;;;;;;4.32;3.65;;;;;;;;;;1689296;29;21586;-60
2022/03/09 00:19:19;;;;;;;9.40;4.57;;;;;;;;;;1690291;29;21961;-60
2022/03/09 00:20:11;;;;;;;5.88;4.13;;;;;;;;;;1690157;29;21651;-60
2022/03/09 00:21:03;;;;;;;9.43;4.03;;;;;;;;;;1689557;29;21559;-60
2022/03/09 00:21:54;;;;;;;7.25;3.97;;;;;;;;;;1689914;29;21721;-60
2022/03/09 00:22:47;;;;;;;7.30;4.05;;;;;;;;;;1690131;29;21573;-60
2022/03/09 00:23:38;;;;;;;17.85;4.75;;;;;;;;;;1689649;29;21643;-60
2022/03/09 00:24:30;;;;;;;7.50;3.88;;;;;;;;;;1689911;29;22072;-60
2022/03/09 00:25:23;;;;;;;5.00;4.13;;;;;;;;;;1690236;29;21847;-60
2022/03/09 00:26:15;;;;;;;12.02;3.92;;;;;;;;;;1690100;29;21564;-60
2022/03/09 00:27:06;;;;;;;7.70;4.40;;;;;;;;;;1690275;29;21621;-60
2022/03/09 00:27:59;;;;;;;6.85;3.97;;;;;;;;;;1688565;29;22010;-60
2022/03/09 00:28:50;;;;;;;4.65;3.70;;;;;;;;;;1689093;29;21631;-59
2022/03/09 00:29:42;;;;;;;5.30;3.72;;;;;;;;;;1690160;29;21636;-58
2022/03/09 00:30:33;;;;;;;5.95;4.63;;;;;;;;;;1689366;29;22341;-59
2022/03/09 00:31:25;;;;;;;6.72;4.43;;;;;;;;;;1690147;29;21567;-60
2022/03/09 00:32:17;;;;;;;5.88;3.65;;;;;;;;;;1690061;29;22012;-60
2022/03/09 00:33:09;;;;;;;8.88;4.28;;;;;;;;;;1689241;29;21565;-60
2022/03/09 00:34:00;;;;;;;9.32;3.90;;;;;;;;;;1688362;29;21568;-60
2022/03/09 00:34:52;;;;;;;20.55;4.63;;;;;;;;;;1690382;29;21513;-60
2022/03/09 00:35:44;;;;;;;15.07;4.03;;;;;;;;;;1689435;29;21520;-60
2022/03/09 00:36:36;;;;;;;13.93;4.18;;;;;;;;;;1689962;29;21544;-60
2022/03/09 00:37:27;;;;;;;8.65;4.03;;;;;;;;;;1690176;29;21558;-60
2022/03/09 00:38:19;;;;;;;11.93;4.15;;;;;;;;;;1688709;29;21525;-60
2022/03/09 00:39:11;;;;;;;9.40;3.90;;;;;;;;;;1690740;29;21599;-60
2022/03/09 00:40:04;;;;;;;15.90;4.10;;;;;;;;;;1691310;29;21553;-60
2022/03/09 00:40:56;;;;;;;6.78;3.50;;;;;;;;;;1690767;29;22128;-60
2022/03/09 00:41:48;;;;;;;7.93;4.38;;;;;;;;;;1690499;29;22127;-60
2022/03/09 00:42:40;;;;;;;7.70;4.15;;;;;;;;;;1691270;29;22022;-60
2022/03/09 00:43:32;;;;;;;7.60;3.70;;;;;;;;;;1691313;29;21541;-60
2022/03/09 00:44:24;;;;;;;10.10;3.85;;;;;;;;;;1690448;29;21711;-60
2022/03/09 00:45:16;;;;;;;12.82;5.20;;;;;;;;;;1691319;29;21626;-60
2022/03/09 00:46:08;;;;;;;14.38;3.75;;;;;;;;;;1691157;29;21609;-60
2022/03/09 00:47:00;;;;;;;7.65;3.17;;;;;;;;;;1690662;29;21487;-60
2022/03/09 00:47:51;;;;;;;9.80;4.10;;;;;;;;;;1689769;29;21521;-60
2022/03/09 00:48:43;;;;;;;11.10;3.17;;;;;;;;;;1690940;29;21515;-60
2022/03/09 00:49:34;;;;;;;6.18;3.35;;;;;;;;;;1691416;29;21626;-60
2022/03/09 00:50:26;;;;;;;4.95;3.83;;;;;;;;;;1690480;29;21623;-60
2022/03/09 00:51:18;;;;;;;4.95;3.60;;;;;;;;;;1684065;29;21540;-60
2022/03/09 00:52:10;;;;;;;4.25;3.55;;;;;;;;;;1684037;29;21541;-60
2022/03/09 00:53:01;;;;;;;3.88;3.28;;;;;;;;;;1687631;29;21808;-60
2022/03/09 00:53:53;;;;;;;6.75;3.75;;;;;;;;;;1691300;29;21930;-60
2022/03/09 00:54:44;;;;;;;10.55;3.17;;;;;;;;;;1691201;29;21597;-60
2022/03/09 00:55:37;;;;;;;5.60;3.67;;;;;;;;;;1690516;29;21530;-60
2022/03/09 00:56:29;;;;;;;10.63;3.40;;;;;;;;;;1691227;29;21574;-60
2022/03/09 00:57:21;;;;;;;5.63;3.08;;;;;;;;;;1684135;29;21559;-60
2022/03/09 00:58:12;;;;;;;5.35;3.33;;;;;;;;;;1683743;29;21592;-60
2022/03/09 00:59:05;;;;;;;4.55;3.70;;;;;;;;;;1685367;29;21517;-60
2022/03/09 00:59:56;;;;;;;12.40;3.38;;;;;;;;;;1690214;29;22188;-60
2022/03/09 01:00:48;;;;;;;14.75;3.63;;;;;;;;;;1691191;29;21514;-60
2022/03/09 01:01:40;;;;;;;9.65;3.70;;;;;;;;;;1691095;29;21523;-60
2022/03/09 01:02:32;;;;;;;10.25;4.00;;;;;;;;;;1691139;29;21917;-60
2022/03/09 01:03:44;;;;;;;8.05;3.17;;;;;;;;;;1690376;29;21565;-60
2022/03/09 01:04:35;;;;;;;13.95;3.83;;;;;;;;;;1691210;29;21582;-60
2022/03/09 01:05:28;;;;;;;10.55;3.30;;;;;;;;;;1691232;29;21629;-60
2022/03/09 01:06:19;;;;;;;5.22;4.07;;;;;;;;;;1690463;29;22100;-60
2022/03/09 01:07:11;;;;;;;10.25;3.60;;;;;;;;;;1690870;29;21623;-60
2022/03/09 01:08:03;;;;;;;6.60;3.42;;;;;;;;;;1690305;29;21900;-60
2022/03/09 01:08:57;;;;;;;11.38;3.53;;;;;;;;;;1690199;29;21779;-60
2022/03/09 01:09:48;;;;;;;4.90;3.75;;;;;;;;;;1691121;29;21491;-60
2022/03/09 01:10:40;;;;;;;6.72;3.80;;;;;;;;;;1691234;29;21547;-60
2022/03/09 01:11:33;;;;;;;3.67;3.30;;;;;;;;;;1684649;29;21555;-60
2022/03/09 01:12:25;;;;;;;11.25;3.50;;;;;;;;;;1684747;29;21876;-60
2022/03/09 01:13:16;;;;;;;4.05;3.40;;;;;;;;;;1685601;29;21583;-60
2022/03/09 01:14:09;;;;;;;13.18;3.60;;;;;;;;;;1690813;29;21631;-60
2022/03/09 01:15:00;;;;;;;8.10;3.35;;;;;;;;;;1684824;29;21536;-60
2022/03/09 01:15:53;;;;;;;9.60;3.53;;;;;;;;;;1690703;29;21553;-60
2022/03/09 01:16:44;;;;;;;5.32;3.78;;;;;;;;;;1683405;29;21755;-60
2022/03/09 01:17:36;;;;;;;18.40;4.10;;;;;;;;;;1683916;29;21746;-60
2022/03/09 01:18:28;;;;;;;15.68;3.55;;;;;;;;;;1687824;29;21557;-60
2022/03/09 01:19:20;;;;;;;10.57;3.90;;;;;;;;;;1690242;29;21553;-60
2022/03/09 01:20:11;;;;;;;11.73;4.07;;;;;;;;;;1691043;29;21565;-60
2022/03/09 01:21:04;;;;;;;15.07;3.75;;;;;;;;;;1691230;29;21614;-60
2022/03/09 01:21:55;;;;;;;6.57;3.63;;;;;;;;;;1690233;29;21599;-60
2022/03/09 01:22:47;;;;;;;8.05;3.53;;;;;;;;;;1690858;29;21545;-60
2022/03/09 01:23:38;;;;;;;8.90;3.67;;;;;;;;;;1691136;29;21679;-60
2022/03/09 01:24:31;;;;;;;3.88;3.58;;;;;;;;;;1690397;29;21550;-60
2022/03/09 01:25:22;;;;;;;4.13;3.50;;;;;;;;;;1690354;29;21653;-60
2022/03/09 01:26:14;;;;;;;7.03;3.55;;;;;;;;;;1691009;29;21525;-60
2022/03/09 01:27:07;;;;;;;8.77;3.33;;;;;;;;;;1691035;29;21628;-60
2022/03/09 01:27:59;;;;;;;7.35;3.30;;;;;;;;;;1690423;29;21596;-60
2022/03/09 01:28:51;;;;;;;7.53;4.05;;;;;;;;;;1689478;29;21566;-58
2022/03/09 01:29:43;;;;;;;5.70;3.67;;;;;;;;;;1691138;29;21498;-58
2022/03/09 01:30:34;;;;;;;5.85;4.20;;;;;;;;;;1691091;29;21730;-57
2022/03/09 01:31:26;;;;;;;7.10;3.67;;;;;;;;;;1691139;29;21870;-57
2022/03/09 01:32:19;;;;;;;9.40;3.47;;;;;;;;;;1691024;29;21580;-58
2022/03/09 01:33:11;;;;;;;7.00;3.92;;;;;;;;;;1690123;29;21559;-57
2022/03/09 01:34:03;;;;;;;11.40;3.63;;;;;;;;;;1691039;29;21991;-58
2022/03/09 01:34:56;;;;;;;12.38;4.07;;;;;;;;;;1690990;29;21684;-58
2022/03/09 01:35:47;;;;;;;3.83;3.42;;;;;;;;;;1691059;29;21580;-58
2022/03/09 01:36:39;;;;;;;14.02;3.85;;;;;;;;;;1691128;29;21542;-57
2022/03/09 01:37:30;;;;;;;6.28;3.97;;;;;;;;;;1690105;29;21517;-57
2022/03/09 01:38:22;;;;;;;9.55;3.38;;;;;;;;;;1690220;29;22486;-58
2022/03/09 01:39:14;;;;;;;5.25;3.85;;;;;;;;;;1690908;29;21575;-56
2022/03/09 01:40:07;;;;;;;10.30;3.65;;;;;;;;;;1690261;29;21587;-56
2022/03/09 01:40:59;;;;;;;6.38;3.50;;;;;;;;;;1691000;29;21565;-58
2022/03/09 01:41:51;;;;;;;6.95;3.55;;;;;;;;;;1691067;29;21517;-57
2022/03/09 01:42:44;;;;;;;3.70;3.40;;;;;;;;;;1690063;29;21543;-56
2022/03/09 01:43:36;;;;;;;4.10;3.22;;;;;;;;;;1690865;29;21674;-57
2022/03/09 01:44:27;;;;;;;8.05;4.25;;;;;;;;;;1690723;29;21603;-57
2022/03/09 01:45:20;;;;;;;5.43;3.97;;;;;;;;;;1690865;29;21636;-58
2022/03/09 01:46:12;;;;;;;20.45;3.97;;;;;;;;;;1690971;29;21705;-58
2022/03/09 01:47:05;;;;;;;22.67;4.22;;;;;;;;;;1690513;29;21520;-57
2022/03/09 01:47:56;;;;;;;24.20;4.53;;;;;;;;;;1689669;29;21694;-58
2022/03/09 01:48:48;;;;;;;16.90;4.00;;;;;;;;;;1689692;29;21572;-57
2022/03/09 01:49:39;;;;;;;7.68;3.80;;;;;;;;;;1691006;29;21555;-57
2022/03/09 01:50:32;;;;;;;6.63;3.90;;;;;;;;;;1690523;29;21522;-57
2022/03/09 01:51:24;;;;;;;5.43;3.85;;;;;;;;;;1690127;29;21663;-57
2022/03/09 01:52:16;;;;;;;5.15;3.58;;;;;;;;;;1691023;29;21535;-57
2022/03/09 01:53:07;;;;;;;10.48;4.18;;;;;;;;;;1690273;29;21587;-57
2022/03/09 01:54:00;;;;;;;16.13;3.45;;;;;;;;;;1690575;29;21531;-57
2022/03/09 01:54:52;;;;;;;8.85;3.65;;;;;;;;;;1691007;29;22077;-57
2022/03/09 01:55:44;;;;;;;11.32;3.72;;;;;;;;;;1690932;29;21505;-57
2022/03/09 01:56:37;;;;;;;8.15;4.03;;;;;;;;;;1691032;29;21598;-56
2022/03/09 01:57:31;;;;;;;21.75;3.97;;;;;;;;;;1690975;29;21801;-57
2022/03/09 01:58:23;;;;;;;11.25;3.53;;;;;;;;;;1689208;29;21810;-56
2022/03/09 01:59:16;;;;;;;15.10;3.33;;;;;;;;;;1690840;29;21655;-56
2022/03/09 02:00:09;;;;;;;4.25;3.78;;;;;;;;;;1690848;29;21567;-56
2022/03/09 02:01:01;;;;;;;5.65;3.40;;;;;;;;;;1690237;29;21645;-57
2022/03/09 02:01:53;;;;;;;4.53;3.80;;;;;;;;;;1681894;29;21576;-55
2022/03/09 02:02:45;;;;;;;7.50;3.47;;;;;;;;;;1683892;29;21486;-57
2022/03/09 02:03:36;;;;;;;7.07;3.85;;;;;;;;;;1687749;29;21593;-57
2022/03/09 02:04:29;;;;;;;13.38;3.70;;;;;;;;;;1690775;29;21505;-56
2022/03/09 02:05:20;;;;;;;8.95;3.92;;;;;;;;;;1684396;29;21524;-56
2022/03/09 02:06:13;;;;;;;6.68;3.53;;;;;;;;;;1689571;29;22108;-57
2022/03/09 02:07:08;;;;;;;9.60;4.00;;;;;;;;;;1690420;29;21498;-57
2022/03/09 02:10:20;;;;;;;12.93;3.40;;;;;;;;;;1690254;29;21552;-56
2022/03/09 02:11:12;;;;;;;6.38;3.75;;;;;;;;;;1690629;29;21646;-57
2022/03/09 02:12:05;;;;;;;5.55;3.13;;;;;;;;;;1690856;29;22190;-57
2022/03/09 02:12:56;;;;;;;4.22;3.33;;;;;;;;;;1690075;29;21571;-56
2022/03/09 02:13:50;;;;;;;11.23;3.83;;;;;;;;;;1690720;29;21539;-56
2022/03/09 02:14:43;;;;;;;7.88;3.53;;;;;;;;;;1690919;29;21592;-57
2022/03/09 02:15:36;;;;;;;9.68;3.47;;;;;;;;;;1690244;29;21627;-57
2022/03/09 02:16:27;;;;;;;6.28;4.28;;;;;;;;;;1690462;29;21554;-56
2022/03/09 02:17:21;;;;;;;7.80;3.72;;;;;;;;;;1690970;29;22089;-57
2022/03/09 02:18:12;;;;;;;11.20;3.78;;;;;;;;;;1689884;29;21726;-57
2022/03/09 02:19:05;;;;;;;11.07;3.88;;;;;;;;;;1690670;29;21599;-56
2022/03/09 02:19:57;;;;;;;4.28;3.60;;;;;;;;;;1690060;29;21550;-56
2022/03/09 02:20:53;;;;;;;5.22;3.60;;;;;;;;;;1690784;29;21880;-57
2022/03/09 02:21:45;;;;;;;6.30;3.58;;;;;;;;;;1690858;29;22039;-57
2022/03/09 02:22:41;;;;;;;4.47;3.70;;;;;;;;;;1689948;29;21643;-57
2022/03/09 02:23:33;;;;;;;7.32;3.30;;;;;;;;;;1690725;29;21578;-56
2022/03/09 02:24:26;;;;;;;5.80;3.50;;;;;;;;;;1690717;29;21557;-57
2022/03/09 02:25:17;;;;;;;6.28;3.95;;;;;;;;;;1690071;29;21778;-56
2022/03/09 02:26:09;;;;;;;5.05;3.80;;;;;;;;;;1690666;29;22008;-57
2022/03/09 02:27:01;;;;;;;3.67;3.35;;;;;;;;;;1690702;29;21527;-57
2022/03/09 02:27:53;;;;;;;10.20;3.67;;;;;;;;;;1683095;29;21531;-57
2022/03/09 02:28:47;;;;;;;12.98;3.63;;;;;;;;;;1681253;29;21936;-56
2022/03/09 02:29:39;;;;;;;8.13;3.80;;;;;;;;;;1683509;29;22241;-57
2022/03/09 02:30:31;;;;;;;17.20;3.80;;;;;;;;;;1690571;29;21626;-56
2022/03/09 02:31:23;;;;;;;5.45;3.33;;;;;;;;;;1690747;29;21499;-56
2022/03/09 02:32:14;;;;;;;7.38;3.60;;;;;;;;;;1690190;29;22072;-57
2022/03/09 02:33:06;;;;;;;18.90;4.07;;;;;;;;;;1690171;29;21545;-56
2022/03/09 02:33:58;;;;;;;10.95;3.60;;;;;;;;;;1683726;29;21883;-57
2022/03/09 02:34:50;;;;;;;11.90;3.85;;;;;;;;;;1683591;29;21591;-56
2022/03/09 02:35:44;;;;;;;6.88;3.50;;;;;;;;;;1686742;29;21521;-55
2022/03/09 02:36:36;;;;;;;7.82;4.28;;;;;;;;;;1690660;29;21665;-58
2022/03/09 02:37:27;;;;;;;8.82;3.45;;;;;;;;;;1690665;29;21625;-57
2022/03/09 02:38:21;;;;;;;10.93;3.50;;;;;;;;;;1690138;29;21645;-57
2022/03/09 02:39:12;;;;;;;7.90;3.38;;;;;;;;;;1686749;29;21587;-57
2022/03/09 02:40:07;;;;;;;8.05;3.80;;;;;;;;;;1689867;29;22814;-57
2022/03/09 02:40:59;;;;;;;9.60;3.30;;;;;;;;;;1690014;29;22073;-56
2022/03/09 02:41:51;;;;;;;13.98;3.30;;;;;;;;;;1690631;29;22023;-57
2022/03/09 02:42:42;;;;;;;12.38;3.55;;;;;;;;;;1690613;29;21519;-56
2022/03/09 02:43:33;;;;;;;7.53;3.42;;;;;;;;;;1689978;29;21564;-56
2022/03/09 02:44:26;;;;;;;8.50;3.22;;;;;;;;;;1690546;29;21552;-57
2022/03/09 02:45:17;;;;;;;3.80;3.10;;;;;;;;;;1690675;29;21948;-58
2022/03/09 02:46:10;;;;;;;9.10;4.00;;;;;;;;;;1689955;29;21492;-57
2022/03/09 02:47:02;;;;;;;11.30;3.35;;;;;;;;;;1690759;29;21574;-58
2022/03/09 02:47:56;;;;;;;6.15;3.17;;;;;;;;;;1689749;29;21601;-57
2022/03/09 02:48:49;;;;;;;13.02;3.17;;;;;;;;;;1688793;29;22012;-57
2022/03/09 02:49:41;;;;;;;14.88;3.97;;;;;;;;;;1690520;29;21549;-58
2022/03/09 02:50:33;;;;;;;4.95;3.08;;;;;;;;;;1690590;29;21574;-56
2022/03/09 02:51:25;;;;;;;7.47;3.17;;;;;;;;;;1684195;29;21675;-57
2022/03/09 02:52:16;;;;;;;3.78;3.10;;;;;;;;;;1684126;29;21577;-57
2022/03/09 02:53:08;;;;;;;8.02;3.28;;;;;;;;;;1687307;29;21620;-58
2022/03/09 02:54:01;;;;;;;10.25;3.22;;;;;;;;;;1686376;29;21508;-58
2022/03/09 02:54:53;;;;;;;5.45;3.30;;;;;;;;;;1690465;29;22183;-57
2022/03/09 02:55:44;;;;;;;9.45;3.67;;;;;;;;;;1689810;29;21660;-56
2022/03/09 02:56:36;;;;;;;6.22;3.35;;;;;;;;;;1690608;29;21869;-57
2022/03/09 02:57:28;;;;;;;4.05;3.47;;;;;;;;;;1690522;29;21566;-58
2022/03/09 02:58:20;;;;;;;3.65;2.60;;;;;;;;;;1688967;29;21519;-57
2022/03/09 02:59:11;;;;;;;10.13;3.17;;;;;;;;;;1688560;29;21931;-57
2022/03/09 03:00:04;;;;;;;3.95;3.13;;;;;;;;;;1690680;29;22153;-57
2022/03/09 03:00:56;;;;;;;9.98;3.47;;;;;;;;;;1682114;29;21571;-56
2022/03/09 03:01:48;;;;;;;3.83;3.13;;;;;;;;;;1683654;29;22088;-57
2022/03/09 03:02:39;;;;;;;6.10;2.83;;;;;;;;;;1687972;29;21554;-58
2022/03/09 03:03:32;;;;;;;13.73;3.25;;;;;;;;;;1690205;29;21541;-57
2022/03/09 03:04:23;;;;;;;7.20;3.17;;;;;;;;;;1690586;29;21564;-58
2022/03/09 03:05:15;;;;;;;4.32;2.90;;;;;;;;;;1690483;29;21991;-57
2022/03/09 03:06:07;;;;;;;8.70;3.20;;;;;;;;;;1689736;29;21800;-56
2022/03/09 03:06:59;;;;;;;18.13;3.17;;;;;;;;;;1690587;29;21542;-58
2022/03/09 03:07:50;;;;;;;10.85;3.33;;;;;;;;;;1690447;29;21584;-57
2022/03/09 03:08:42;;;;;;;4.40;3.38;;;;;;;;;;1689067;29;21899;-56
2022/03/09 03:09:36;;;;;;;7.88;2.97;;;;;;;;;;1690526;29;21581;-57
2022/03/09 03:10:27;;;;;;;3.50;3.15;;;;;;;;;;1690490;29;21563;-57
2022/03/09 03:11:19;;;;;;;6.28;3.10;;;;;;;;;;1690687;29;21520;-57
2022/03/09 03:12:11;;;;;;;8.57;3.38;;;;;;;;;;1682685;29;22113;-56
2022/03/09 03:13:03;;;;;;;5.93;3.00;;;;;;;;;;1681235;29;21654;-56
2022/03/09 03:13:54;;;;;;;5.38;3.63;;;;;;;;;;1688057;29;21519;-58
2022/03/09 03:14:46;;;;;;;5.35;3.10;;;;;;;;;;1690542;29;21536;-58
2022/03/09 03:15:37;;;;;;;3.08;2.63;;;;;;;;;;1690756;29;21648;-56
2022/03/09 03:16:30;;;;;;;7.05;3.35;;;;;;;;;;1689770;29;21504;-56
2022/03/09 03:17:21;;;;;;;7.28;3.30;;;;;;;;;;1690372;29;21502;-58
2022/03/09 03:18:13;;;;;;;6.88;3.35;;;;;;;;;;1689633;29;21593;-57
2022/03/09 03:19:04;;;;;;;6.85;3.13;;;;;;;;;;1689754;29;21577;-58
2022/03/09 03:19:57;;;;;;;10.13;3.05;;;;;;;;;;1690387;29;21646;-56
2022/03/09 03:20:48;;;;;;;3.20;2.90;;;;;;;;;;1690508;29;21633;-58
2022/03/09 03:21:40;;;;;;;3.45;3.15;;;;;;;;;;1689741;29;21498;-58
2022/03/09 03:22:31;;;;;;;3.40;3.10;;;;;;;;;;1689459;29;21551;-57
2022/03/09 03:23:24;;;;;;;6.32;3.20;;;;;;;;;;1690340;29;21519;-57
2022/03/09 03:24:15;;;;;;;3.33;3.05;;;;;;;;;;1689860;29;21514;-58
2022/03/09 03:25:09;;;;;;;9.30;3.30;;;;;;;;;;1690291;29;22239;-57
2022/03/09 03:26:02;;;;;;;3.22;2.97;;;;;;;;;;1690517;29;21552;-58
2022/03/09 03:26:54;;;;;;;2.97;2.67;;;;;;;;;;1690362;29;21490;-57
2022/03/09 03:27:46;;;;;;;4.18;2.85;;;;;;;;;;1689758;29;22014;-58
2022/03/09 03:28:38;;;;;;;3.25;2.65;;;;;;;;;;1689540;29;21514;-56
2022/03/09 03:29:29;;;;;;;10.48;2.85;;;;;;;;;;1690466;29;21524;-58
2022/03/09 03:30:21;;;;;;;4.90;3.38;;;;;;;;;;1690386;29;21537;-57
2022/03/09 03:31:12;;;;;;;4.43;2.83;;;;;;;;;;1690462;29;21693;-57
2022/03/09 03:32:06;;;;;;;4.28;3.30;;;;;;;;;;1690449;29;21589;-57
2022/03/09 03:32:57;;;;;;;3.08;2.80;;;;;;;;;;1690117;29;22133;-56
2022/03/09 03:33:49;;;;;;;6.85;3.67;;;;;;;;;;1690545;29;21649;-56
2022/03/09 03:34:41;;;;;;;4.93;2.72;;;;;;;;;;1690401;29;21592;-57
2022/03/09 03:35:33;;;;;;;4.65;3.58;;;;;;;;;;1689651;29;21508;-57
2022/03/09 03:36:25;;;;;;;4.18;2.80;;;;;;;;;;1690297;29;21917;-58
2022/03/09 03:37:16;;;;;;;3.10;2.72;;;;;;;;;;1690500;29;21605;-57
2022/03/09 03:38:09;;;;;;;6.75;3.03;;;;;;;;;;1681674;29;21584;-56
2022/03/09 03:39:00;;;;;;;6.65;3.28;;;;;;;;;;1681425;29;21548;-57
2022/03/09 03:39:52;;;;;;;5.82;3.42;;;;;;;;;;1687937;29;21565;-56
2022/03/09 03:40:45;;;;;;;8.98;3.70;;;;;;;;;;1690361;29;21593;-57
2022/03/09 03:41:37;;;;;;;4.00;3.28;;;;;;;;;;1689551;29;21521;-57
2022/03/09 03:42:29;;;;;;;3.17;2.97;;;;;;;;;;1690457;29;21799;-57
2022/03/09 03:43:21;;;;;;;5.38;3.55;;;;;;;;;;1690179;29;21507;-58
2022/03/09 03:44:12;;;;;;;6.38;3.22;;;;;;;;;;1690482;29;21563;-58
2022/03/09 03:45:05;;;;;;;5.00;3.13;;;;;;;;;;1690507;29;21544;-56
2022/03/09 03:45:56;;;;;;;7.07;3.70;;;;;;;;;;1689738;29;21908;-58
2022/03/09 03:46:49;;;;;;;3.67;3.10;;;;;;;;;;1690678;29;21646;-57
2022/03/09 03:47:40;;;;;;;4.57;3.67;;;;;;;;;;1690293;29;21502;-57
2022/03/09 03:48:32;;;;;;;8.02;3.03;;;;;;;;;;1688970;29;21527;-58
2022/03/09 03:49:23;;;;;;;9.48;3.45;;;;;;;;;;1690168;29;21509;-56
2022/03/09 03:50:15;;;;;;;5.60;2.95;;;;;;;;;;1690477;29;21527;-56
2022/03/09 03:51:06;;;;;;;5.38;3.00;;;;;;;;;;1690400;29;22072;-58
2022/03/09 03:51:59;;;;;;;6.65;3.15;;;;;;;;;;1689729;29;21599;-57
2022/03/09 03:52:50;;;;;;;5.97;3.28;;;;;;;;;;1690175;29;21575;-57
2022/03/09 03:53:43;;;;;;;3.80;3.38;;;;;;;;;;1690333;29;22240;-57
2022/03/09 03:54:34;;;;;;;7.25;3.15;;;;;;;;;;1685662;29;21632;-57
2022/03/09 03:55:26;;;;;;;6.22;3.28;;;;;;;;;;1683175;29;21626;-57
2022/03/09 03:56:19;;;;;;;3.15;2.75;;;;;;;;;;1676790;29;21519;-57
2022/03/09 03:57:11;;;;;;;3.60;3.08;;;;;;;;;;1681063;29;22088;-58
2022/03/09 03:58:02;;;;;;;10.82;3.55;;;;;;;;;;1686359;29;21555;-56
2022/03/09 03:58:54;;;;;;;3.20;2.75;;;;;;;;;;1683144;29;21510;-56
2022/03/09 03:59:45;;;;;;;9.13;3.40;;;;;;;;;;1683435;29;21510;-57
2022/03/09 04:00:38;;;;;;;12.43;3.30;;;;;;;;;;1687143;29;21703;-57
2022/03/09 04:01:29;;;;;;;9.02;3.35;;;;;;;;;;1690367;29;21543;-57
2022/03/09 04:02:21;;;;;;;13.48;3.22;;;;;;;;;;1690236;29;21638;-57
2022/03/09 04:03:13;;;;;;;5.63;2.88;;;;;;;;;;1690260;29;21560;-57
2022/03/09 04:04:05;;;;;;;3.72;2.92;;;;;;;;;;1689631;29;21692;-58
2022/03/09 04:04:57;;;;;;;3.85;3.17;;;;;;;;;;1690178;29;21570;-56
2022/03/09 04:05:49;;;;;;;3.97;3.22;;;;;;;;;;1690287;29;21534;-56
2022/03/09 04:06:40;;;;;;;6.25;2.83;;;;;;;;;;1689470;29;21570;-57
2022/03/09 04:07:33;;;;;;;7.38;3.45;;;;;;;;;;1689187;29;22224;-57
2022/03/09 04:08:24;;;;;;;9.05;3.35;;;;;;;;;;1689384;29;21528;-57
2022/03/09 04:09:16;;;;;;;9.70;3.40;;;;;;;;;;1689541;29;21580;-57
2022/03/09 04:10:07;;;;;;;5.88;3.75;;;;;;;;;;1690255;29;21656;-57
2022/03/09 04:10:59;;;;;;;5.97;3.03;;;;;;;;;;1690217;29;21665;-57
2022/03/09 04:11:52;;;;;;;7.25;3.38;;;;;;;;;;1689911;29;21611;-56
2022/03/09 04:12:44;;;;;;;6.45;3.20;;;;;;;;;;1691130;29;21605;-57
2022/03/09 04:13:35;;;;;;;10.55;3.10;;;;;;;;;;1691527;29;21552;-56
2022/03/09 04:14:27;;;;;;;7.28;3.42;;;;;;;;;;1686664;29;22033;-56
2022/03/09 04:15:19;;;;;;;13.25;3.10;;;;;;;;;;1691356;29;21574;-56
2022/03/09 04:16:11;;;;;;;11.68;3.33;;;;;;;;;;1691418;29;21541;-57
2022/03/09 04:17:03;;;;;;;3.80;2.75;;;;;;;;;;1690821;29;22116;-57
2022/03/09 04:17:55;;;;;;;7.10;3.40;;;;;;;;;;1690620;29;21518;-57
2022/03/09 04:18:46;;;;;;;5.72;3.28;;;;;;;;;;1691289;29;21506;-56
2022/03/09 04:19:38;;;;;;;13.48;3.15;;;;;;;;;;1683881;29;22716;-57
2022/03/09 04:20:30;;;;;;;11.10;3.45;;;;;;;;;;1683976;29;21563;-58
2022/03/09 04:21:22;;;;;;;12.35;3.50;;;;;;;;;;1688971;29;21496;-57
2022/03/09 04:22:13;;;;;;;6.13;3.03;;;;;;;;;;1691213;29;21586;-58
2022/03/09 04:23:08;;;;;;;5.03;3.28;;;;;;;;;;1691435;29;22230;-56
2022/03/09 04:23:59;;;;;;;5.43;3.15;;;;;;;;;;1690771;29;21517;-56
2022/03/09 04:24:52;;;;;;;46.67;4.60;;;;;;;;;;1691557;29;21549;-58
2022/03/09 04:25:43;;;;;;;15.60;4.45;;;;;;;;;;1691347;29;22033;-56
2022/03/09 04:26:35;;;;;;;30.63;3.67;;;;;;;;;;1691454;29;21549;-56
2022/03/09 04:27:28;;;;;;;6.30;3.58;;;;;;;;;;1691473;29;21579;-57
2022/03/09 04:28:20;;;;;;;17.55;3.45;;;;;;;;;;1690033;29;21541;-56
2022/03/09 04:29:11;;;;;;;8.23;3.15;;;;;;;;;;1690451;29;22149;-57
2022/03/09 04:30:04;;;;;;;5.25;3.33;;;;;;;;;;1691316;29;21564;-56
2022/03/09 04:30:55;;;;;;;7.25;3.33;;;;;;;;;;1690665;29;21494;-56
2022/03/09 04:31:48;;;;;;;13.32;4.10;;;;;;;;;;1691320;29;21548;-57
2022/03/09 04:32:39;;;;;;;16.27;3.65;;;;;;;;;;1691325;29;21674;-57
2022/03/09 04:33:31;;;;;;;7.60;3.22;;;;;;;;;;1690421;29;21991;-56
2022/03/09 04:34:22;;;;;;;9.75;3.45;;;;;;;;;;1691289;29;21610;-57
2022/03/09 04:35:15;;;;;;;26.25;3.95;;;;;;;;;;1691396;29;22162;-57
2022/03/09 04:36:06;;;;;;;5.18;3.28;;;;;;;;;;1690657;29;21507;-56
2022/03/09 04:36:58;;;;;;;16.23;3.67;;;;;;;;;;1691381;29;21646;-55
2022/03/09 04:37:50;;;;;;;12.63;3.45;;;;;;;;;;1690910;29;22066;-55
2022/03/09 04:38:42;;;;;;;11.65;3.35;;;;;;;;;;1690868;29;21984;-57
2022/03/09 04:39:33;;;;;;;16.67;3.53;;;;;;;;;;1690580;29;21576;-56
2022/03/09 04:40:25;;;;;;;6.30;3.35;;;;;;;;;;1690350;29;21632;-56
2022/03/09 04:41:16;;;;;;;10.10;2.90;;;;;;;;;;1684137;29;21513;-57
2022/03/09 04:42:09;;;;;;;9.93;3.58;;;;;;;;;;1683556;29;21743;-58
2022/03/09 04:43:01;;;;;;;12.55;3.65;;;;;;;;;;1688725;29;21559;-56
2022/03/09 04:43:53;;;;;;;22.50;3.33;;;;;;;;;;1690991;29;21528;-57
2022/03/09 04:44:45;;;;;;;11.40;3.30;;;;;;;;;;1687189;29;21507;-57
2022/03/09 04:45:37;;;;;;;9.32;3.78;;;;;;;;;;1691241;29;22215;-56
2022/03/09 04:46:28;;;;;;;9.93;3.20;;;;;;;;;;1691303;29;21588;-57
2022/03/09 04:47:20;;;;;;;9.68;3.65;;;;;;;;;;1691360;29;21541;-56
2022/03/09 04:48:11;;;;;;;9.88;3.45;;;;;;;;;;1690483;29;22148;-57
2022/03/09 04:49:04;;;;;;;11.82;3.63;;;;;;;;;;1683289;29;21543;-57
2022/03/09 04:49:55;;;;;;;7.43;3.28;;;;;;;;;;1684374;29;21556;-57
2022/03/09 04:50:47;;;;;;;16.35;3.97;;;;;;;;;;1688723;29;21594;-57
2022/03/09 04:51:38;;;;;;;13.88;3.45;;;;;;;;;;1691476;29;21602;-57
2022/03/09 04:52:30;;;;;;;10.80;3.33;;;;;;;;;;1690577;29;21594;-59
2022/03/09 04:53:21;;;;;;;10.75;3.78;;;;;;;;;;1691130;29;22197;-55
2022/03/09 04:54:14;;;;;;;15.48;4.35;;;;;;;;;;1691269;29;21617;-56
2022/03/09 04:55:07;;;;;;;14.38;4.20;;;;;;;;;;1691260;29;21764;-56
2022/03/09 04:55:59;;;;;;;16.27;3.65;;;;;;;;;;1690438;29;22024;-57
2022/03/09 04:56:50;;;;;;;13.63;3.67;;;;;;;;;;1691410;29;21653;-56
2022/03/09 04:57:42;;;;;;;9.93;3.53;;;;;;;;;;1691158;29;21717;-56
2022/03/09 04:58:35;;;;;;;9.13;3.80;;;;;;;;;;1689896;29;21509;-57
2022/03/09 04:59:27;;;;;;;14.40;3.70;;;;;;;;;;1691373;29;21530;-58
2022/03/09 05:00:18;;;;;;;7.60;3.83;;;;;;;;;;1691154;29;21624;-58
2022/03/09 05:01:11;;;;;;;15.15;4.32;;;;;;;;;;1690510;29;21971;-57
2022/03/09 05:02:02;;;;;;;14.68;4.38;;;;;;;;;;1690938;29;21516;-58
2022/03/09 05:02:54;;;;;;;19.20;4.30;;;;;;;;;;1684554;29;21517;-58
2022/03/09 05:03:46;;;;;;;19.65;4.13;;;;;;;;;;1690700;29;21542;-58
2022/03/09 05:04:38;;;;;;;13.93;4.40;;;;;;;;;;1691316;29;22033;-58
2022/03/09 05:05:29;;;;;;;12.10;3.90;;;;;;;;;;1690280;29;21552;-57
2022/03/09 05:06:21;;;;;;;42.10;4.68;;;;;;;;;;1691270;29;21668;-58
2022/03/09 05:07:12;;;;;;;16.35;4.40;;;;;;;;;;1691037;29;22161;-57
2022/03/09 05:08:05;;;;;;;29.52;4.32;;;;;;;;;;1689498;29;21619;-58
2022/03/09 05:08:56;;;;;;;22.15;5.88;;;;;;;;;;1689233;29;21511;-57
2022/03/09 05:09:48;;;;;;;17.45;4.32;;;;;;;;;;1691369;29;21521;-57
2022/03/09 05:10:40;;;;;;;17.25;4.10;;;;;;;;;;1689655;29;21867;-57
2022/03/09 05:11:32;;;;;;;21.40;4.63;;;;;;;;;;1688254;29;21912;-57
2022/03/09 05:12:23;;;;;;;21.33;4.07;;;;;;;;;;1691003;29;21581;-57